createdAt,value
2022-08-25T08:06:30.013Z,99.60
2022-08-25T08:08:31.477Z,98.50
2022-08-25T08:11:05.619Z,97.90
2022-08-25T08:13:41.384Z,96.60
2022-08-25T08:16:13.461Z,95.40
2022-08-25T08:18:42.638Z,93.10
2022-08-25T08:21:41.530Z,92.30
2022-08-25T08:24:19.564Z,91.20
2022-08-25T08:26:58.914Z,86.80
2022-08-25T08:29:26.450Z,87.90
2022-08-25T08:31:53.522Z,84.60
2022-08-25T08:34:24.758Z,82.00
2022-08-25T08:36:52.530Z,80.70
2022-08-25T08:39:19.387Z,81.00
2022-08-25T08:42:23.955Z,80.50
2022-08-25T08:45:15.465Z,76.30
2022-08-25T08:47:42.317Z,75.50
2022-08-25T08:50:40.398Z,73.90
2022-08-25T08:53:21.954Z,75.90
2022-08-25T08:55:52.976Z,73.40
2022-08-25T08:58:39.971Z,72.20
2022-08-25T09:01:10.517Z,74.30
2022-08-25T09:03:39.730Z,74.90
2022-08-25T09:06:44.494Z,74.80
2022-08-25T09:09:20.663Z,75.10
2022-08-25T09:12:01.822Z,74.80
2022-08-25T09:14:53.706Z,71.80
2022-08-25T09:17:54.275Z,68.70
2022-08-25T09:21:10.633Z,66.30
2022-08-25T09:23:54.973Z,67.10
2022-08-25T09:26:27.380Z,69.10
2022-08-25T09:29:16.298Z,67.50
2022-08-25T09:31:43.559Z,68.40
2022-08-25T09:34:22.228Z,66.30
2022-08-25T09:36:52.908Z,67.20
2022-08-25T09:39:21.487Z,66.30
2022-08-25T09:42:00.150Z,64.80
2022-08-25T09:44:39.585Z,66.00
2022-08-25T09:47:13.854Z,63.10
2022-08-25T09:49:44.038Z,61.40
2022-08-25T09:52:31.698Z,61.50
2022-08-25T09:55:39.437Z,60.90
2022-08-25T09:58:24.156Z,61.20
2022-08-25T10:01:03.995Z,63.10
2022-08-25T10:03:32.350Z,60.30
2022-08-25T10:06:14.909Z,60.80
2022-08-25T10:08:44.860Z,60.10
2022-08-25T10:11:15.415Z,59.50
2022-08-25T10:13:53.154Z,59.10
2022-08-25T10:16:33.667Z,61.40
2022-08-25T10:19:10.611Z,59.80
2022-08-25T10:21:39.889Z,59.70
2022-08-25T10:24:08.560Z,59.20
2022-08-25T10:27:03.429Z,58.40
2022-08-25T10:29:57.941Z,57.50
2022-08-25T10:32:47.711Z,57.40
2022-08-25T10:35:26.433Z,58.20
2022-08-25T10:38:36.235Z,57.90
2022-08-25T10:41:44.942Z,56.90
2022-08-25T10:44:47.212Z,58.60
2022-08-25T10:47:48.309Z,58.90
2022-08-25T10:50:24.381Z,57.70
2022-08-25T10:53:04.785Z,57.50
2022-08-25T10:56:07.347Z,58.60
2022-08-25T10:58:43.370Z,60.90
2022-08-25T11:01:28.833Z,59.80
2022-08-25T11:04:08.087Z,58.90
2022-08-25T11:06:47.568Z,58.40
2022-08-25T11:09:21.416Z,59.80
2022-08-25T11:12:13.618Z,60.10
2022-08-25T11:14:50.840Z,60.30
2022-08-25T11:17:24.900Z,60.70
2022-08-25T11:20:01.619Z,60.40
2022-08-25T11:22:40.774Z,59.90
2022-08-25T11:25:35.087Z,58.00
2022-08-25T11:28:20.818Z,58.40
2022-08-25T11:30:51.407Z,58.50
2022-08-25T11:33:19.965Z,57.80
2022-08-25T11:35:51.154Z,58.00
2022-08-25T11:38:24.995Z,58.30
2022-08-25T11:41:30.455Z,57.50
2022-08-25T11:44:32.236Z,57.50
2022-08-25T11:47:02.133Z,57.00
2022-08-25T11:50:06.331Z,55.60
2022-08-25T11:52:33.142Z,55.60
2022-08-25T11:55:15.703Z,54.50
2022-08-25T11:57:44.576Z,56.20
2022-08-25T12:00:17.482Z,57.80
2022-08-25T12:02:47.805Z,57.30
2022-08-25T12:05:21.995Z,54.70
2022-08-25T12:08:22.395Z,53.60
2022-08-25T12:11:07.196Z,51.90
2022-08-25T12:13:51.324Z,49.70
2022-08-25T12:16:36.775Z,51.80
2022-08-25T12:19:36.249Z,52.10
2022-08-25T12:22:03.342Z,51.90
2022-08-25T12:24:48.129Z,51.10
2022-08-25T12:27:28.144Z,51.60
2022-08-25T12:30:21.260Z,53.50
2022-08-25T12:33:20.472Z,53.40
2022-08-25T12:36:06.937Z,52.40
2022-08-25T12:38:42.492Z,51.60
2022-08-25T12:41:27.484Z,51.80
2022-08-25T12:44:32.175Z,51.40
2022-08-25T12:47:14.279Z,52.90
2022-08-25T12:49:41.400Z,55.60
2022-08-25T12:52:21.042Z,55.10
2022-08-25T12:54:50.345Z,53.70
2022-08-25T12:57:43.404Z,52.60
2022-08-25T13:03:06.129Z,54.10
2022-08-25T13:05:48.389Z,53.60
2022-08-25T13:08:37.093Z,52.40
2022-08-25T13:11:17.372Z,51.30
2022-08-25T13:13:51.576Z,51.90
2022-08-25T13:16:25.592Z,49.60
2022-08-25T13:18:59.182Z,49.20
2022-08-25T13:21:37.742Z,49.00
2022-08-25T13:24:09.250Z,48.10
2022-08-25T13:26:48.159Z,48.00
2022-08-25T13:29:21.374Z,47.40
2022-08-25T13:31:59.322Z,47.80
2022-08-25T13:34:34.741Z,47.90
2022-08-25T13:37:31.229Z,47.00
2022-08-25T13:40:10.236Z,48.60
2022-08-25T13:42:42.418Z,48.10
2022-08-25T13:45:21.507Z,47.50
2022-08-25T13:47:55.908Z,47.10
2022-08-25T13:50:26.831Z,47.50
2022-08-25T13:53:05.890Z,47.40
2022-08-25T13:55:51.018Z,47.00
2022-08-25T13:58:45.651Z,46.80
2022-08-25T14:01:46.414Z,45.00
2022-08-25T14:04:32.651Z,44.30
2022-08-25T14:07:26.688Z,43.80
2022-08-25T14:10:30.360Z,43.00
2022-08-25T14:13:11.268Z,42.70
2022-08-25T14:15:42.456Z,43.10
2022-08-25T14:18:27.232Z,43.20
2022-08-25T14:20:55.874Z,43.20
2022-08-25T14:23:27.093Z,45.90
2022-08-25T14:25:57.469Z,46.80
2022-08-25T14:28:29.024Z,48.90
2022-08-25T14:31:08.345Z,48.80
2022-08-25T14:33:42.929Z,48.60
2022-08-25T14:36:10.420Z,48.90
2022-08-25T14:38:54.517Z,50.10
2022-08-25T14:41:25.862Z,51.70
2022-08-25T14:44:15.399Z,53.20
2022-08-25T14:46:59.539Z,53.60
2022-08-25T14:49:55.866Z,53.00
2022-08-25T14:56:16.668Z,54.60
2022-08-25T14:59:28.432Z,54.50
2022-08-25T15:02:29.627Z,53.40
2022-08-25T15:05:08.359Z,53.50
2022-08-25T15:08:10.136Z,53.50
2022-08-25T15:10:40.359Z,54.50
2022-08-25T15:13:37.605Z,54.80
2022-08-25T15:16:35.222Z,55.20
2022-08-25T15:19:54.347Z,57.20
2022-08-25T15:23:14.732Z,58.20
2022-08-25T15:26:24.210Z,57.60
2022-08-25T15:29:23.380Z,56.50
2022-08-25T15:32:32.993Z,56.50
2022-08-25T15:47:13.014Z,60.80
2022-08-25T15:50:42.626Z,59.70
2022-08-25T15:54:01.837Z,58.00
2022-08-25T15:56:28.814Z,58.30
